Time;durP1;ratioP1;P1;durP2;ratioP2;P2;SDS_P1;SDS_P2;PMS_P1;PMS_P2;Temp;Humidity;BMP_temperature;BMP_pressure;BME280_temperature;BME280_humidity;BME280_pressure;Samples;Min_cycle;Max_cycle;Signal;HPM_P1;HPM_P2
2023/05/22 00:01:36;;;;;;;;;;;;;;;;;;5001762;28;19923;-72
2023/05/22 00:04:02;;;;;;;;;;;;;;;;;;4973272;28;19918;-71
2023/05/22 00:06:29;;;;;;;;;;;;;;;;;;4972608;28;19991;-71
2023/05/22 00:08:55;;;;;;;;;;;;;;;;;;4987014;28;19997;-71
2023/05/22 00:11:21;;;;;;;;;;;;;;;;;;4976527;28;19917;-70
2023/05/22 00:13:47;;;;;;;;;;;;;;;;;;4973098;28;19913;-70
2023/05/22 00:16:13;;;;;;;;;;;;;;;;;;4971448;28;20399;-69
2023/05/22 00:18:41;;;;;;;;;;;;;;;;;;4965986;28;19914;-71
2023/05/22 00:21:07;;;;;;;;;;;;;;;;;;4947221;28;20544;-70
2023/05/22 00:23:33;;;;;;;;;;;;;;;;;;4978732;28;20008;-70
2023/05/22 00:25:59;;;;;;;;;;;;;;;;;;4978023;28;19968;-69
2023/05/22 00:28:25;;;;;;;;;;;;;;;;;;4978768;28;19914;-71
2023/05/22 00:30:51;;;;;;;;;;;;;;;;;;4982104;28;20539;-72
2023/05/22 00:33:17;;;;;;;;;;;;;;;;;;4978345;28;19949;-69
2023/05/22 00:35:43;;;;;;;;;;;;;;;;;;4984706;28;19925;-72
2023/05/22 00:38:09;;;;;;;;;;;;;;;;;;4983374;28;20201;-70
2023/05/22 00:40:35;;;;;;;;;;;;;;;;;;4986152;28;19917;-70
2023/05/22 00:43:07;;;;;;;;;;;;;;;;;;4984083;28;19920;-70
2023/05/22 00:45:33;;;;;;;;;;;;;;;;;;4988233;28;19913;-70
2023/05/22 00:47:59;;;;;;;;;;;;;;;;;;4981906;28;20393;-69
2023/05/22 00:50:25;;;;;;;;;;;;;;;;;;4983702;28;19913;-70
2023/05/22 00:52:51;;;;;;;;;;;;;;;;;;4984895;28;19949;-70
2023/05/22 00:55:17;;;;;;;;;;;;;;;;;;4968791;28;20613;-69
2023/05/22 00:57:43;;;;;;;;;;;;;;;;;;4945512;28;19913;-71
2023/05/22 01:00:10;;;;;;;;;;;;;;;;;;4942561;28;19909;-70
2023/05/22 01:02:36;;;;;;;;;;;;;;;;;;4944211;28;19920;-71
2023/05/22 01:05:03;;;;;;;;;;;;;;;;;;4945097;28;20579;-70
2023/05/22 01:07:29;;;;;;;;;;;;;;;;;;4942904;28;20410;-70
2023/05/22 01:09:55;;;;;;;;;;;;;;;;;;4941363;28;19925;-69
2023/05/22 01:12:21;;;;;;;;;;;;;;;;;;4945454;28;19914;-69
2023/05/22 01:14:47;;;;;;;;;;;;;;;;;;4943015;28;19917;-70
2023/05/22 01:17:15;;;;;;;;;;;;;;;;;;4942894;28;20307;-72
2023/05/22 01:19:41;;;;;;;;;;;;;;;;;;4948885;28;20322;-72
2023/05/22 01:22:06;;;;;;;;;;;;;;;;;;4940342;28;19924;-70
2023/05/22 01:24:34;;;;;;;;;;;;;;;;;;4949591;28;20066;-70
2023/05/22 01:27:02;;;;;;;;;;;;;;;;;;4943109;28;19914;-70
2023/05/22 01:29:28;;;;;;;;;;;;;;;;;;4944145;28;20658;-70
2023/05/22 01:31:55;;;;;;;;;;;;;;;;;;4956212;28;19918;-71
2023/05/22 01:34:21;;;;;;;;;;;;;;;;;;4982580;28;20475;-71
2023/05/22 01:36:47;;;;;;;;;;;;;;;;;;4980892;28;20207;-70
2023/05/22 01:39:16;;;;;;;;;;;;;;;;;;4980835;28;21283;-71
2023/05/22 01:41:42;;;;;;;;;;;;;;;;;;4985597;28;20782;-71
2023/05/22 01:44:07;;;;;;;;;;;;;;;;;;4978328;28;20148;-69
2023/05/22 01:46:33;;;;;;;;;;;;;;;;;;4984665;28;19913;-71
2023/05/22 01:49:00;;;;;;;;;;;;;;;;;;4983016;28;19919;-71
2023/05/22 01:51:26;;;;;;;;;;;;;;;;;;4985893;28;20420;-71
2023/05/22 01:53:52;;;;;;;;;;;;;;;;;;4982890;28;19924;-71
2023/05/22 01:56:18;;;;;;;;;;;;;;;;;;4983183;28;20004;-72
2023/05/22 01:58:44;;;;;;;;;;;;;;;;;;4978943;28;20153;-70
2023/05/22 02:01:10;;;;;;;;;;;;;;;;;;4981748;28;20488;-70
2023/05/22 02:03:36;;;;;;;;;;;;;;;;;;4981506;28;19913;-70
2023/05/22 02:06:02;;;;;;;;;;;;;;;;;;4978629;28;20267;-70
2023/05/22 02:08:28;;;;;;;;;;;;;;;;;;4981018;28;20370;-70
2023/05/22 02:10:54;;;;;;;;;;;;;;;;;;4981299;28;19919;-70
2023/05/22 02:13:20;;;;;;;;;;;;;;;;;;4981579;28;20371;-71
2023/05/22 02:15:45;;;;;;;;;;;;;;;;;;4983341;28;20250;-69
2023/05/22 02:18:12;;;;;;;;;;;;;;;;;;4982690;28;19936;-69
2023/05/22 02:20:37;;;;;;;;;;;;;;;;;;4977858;28;19918;-69
2023/05/22 02:23:03;;;;;;;;;;;;;;;;;;4980090;28;20584;-69
2023/05/22 02:25:30;;;;;;;;;;;;;;;;;;4981542;28;19917;-69
2023/05/22 02:27:55;;;;;;;;;;;;;;;;;;4979952;28;20249;-69
2023/05/22 02:30:21;;;;;;;;;;;;;;;;;;4982625;28;19914;-69
2023/05/22 02:32:47;;;;;;;;;;;;;;;;;;4980082;28;20025;-69
2023/05/22 02:35:13;;;;;;;;;;;;;;;;;;4977919;28;19922;-69
2023/05/22 02:37:39;;;;;;;;;;;;;;;;;;4976772;28;19948;-69
2023/05/22 02:40:06;;;;;;;;;;;;;;;;;;4989840;28;20468;-69
2023/05/22 02:42:32;;;;;;;;;;;;;;;;;;4982091;28;19917;-69
2023/05/22 02:44:58;;;;;;;;;;;;;;;;;;4977618;28;19920;-69
2023/05/22 02:47:24;;;;;;;;;;;;;;;;;;4980635;28;19913;-70
2023/05/22 02:49:50;;;;;;;;;;;;;;;;;;4980006;28;20433;-70
2023/05/22 02:52:16;;;;;;;;;;;;;;;;;;4975140;28;19918;-70
2023/05/22 02:54:43;;;;;;;;;;;;;;;;;;4982671;28;19917;-70
2023/05/22 02:57:09;;;;;;;;;;;;;;;;;;4976088;28;19995;-70
2023/05/22 02:59:35;;;;;;;;;;;;;;;;;;4980221;28;19922;-70
2023/05/22 03:02:01;;;;;;;;;;;;;;;;;;4976990;28;19917;-70
2023/05/22 03:04:28;;;;;;;;;;;;;;;;;;4979449;28;19913;-71
2023/05/22 03:06:54;;;;;;;;;;;;;;;;;;4978069;28;19913;-71
2023/05/22 03:09:20;;;;;;;;;;;;;;;;;;4978330;28;20431;-69
2023/05/22 03:11:46;;;;;;;;;;;;;;;;;;4981068;28;19943;-72
2023/05/22 03:14:12;;;;;;;;;;;;;;;;;;4975124;28;20507;-72
2023/05/22 03:16:38;;;;;;;;;;;;;;;;;;4980539;28;19940;-70
2023/05/22 03:19:05;;;;;;;;;;;;;;;;;;4978702;28;20437;-70
2023/05/22 03:21:31;;;;;;;;;;;;;;;;;;4977942;28;20400;-70
2023/05/22 03:23:57;;;;;;;;;;;;;;;;;;4978426;28;20427;-69
2023/05/22 03:26:23;;;;;;;;;;;;;;;;;;4978858;28;19920;-69
2023/05/22 03:28:49;;;;;;;;;;;;;;;;;;4981101;28;19913;-69
2023/05/22 03:31:16;;;;;;;;;;;;;;;;;;4979622;28;20367;-70
2023/05/22 03:33:42;;;;;;;;;;;;;;;;;;4978246;28;19940;-72
2023/05/22 03:36:08;;;;;;;;;;;;;;;;;;4976171;28;20293;-69
2023/05/22 03:38:34;;;;;;;;;;;;;;;;;;4978063;28;19949;-69
2023/05/22 03:41:00;;;;;;;;;;;;;;;;;;4975645;28;20399;-69
2023/05/22 03:43:26;;;;;;;;;;;;;;;;;;4981842;28;19956;-69
2023/05/22 03:45:52;;;;;;;;;;;;;;;;;;4977117;28;20000;-69
2023/05/22 03:48:18;;;;;;;;;;;;;;;;;;4976706;28;20259;-72
2023/05/22 03:50:44;;;;;;;;;;;;;;;;;;4980110;28;19952;-70
2023/05/22 03:53:10;;;;;;;;;;;;;;;;;;4978231;28;19968;-69
2023/05/22 03:55:36;;;;;;;;;;;;;;;;;;4980140;28;20032;-69
2023/05/22 03:58:02;;;;;;;;;;;;;;;;;;4977377;28;19968;-72
2023/05/22 04:00:28;;;;;;;;;;;;;;;;;;4980943;28;20118;-71
2023/05/22 04:02:57;;;;;;;;;;;;;;;;;;4980429;28;20117;-71
2023/05/22 04:05:23;;;;;;;;;;;;;;;;;;4981154;28;20004;-70
2023/05/22 04:07:49;;;;;;;;;;;;;;;;;;4982289;28;19914;-71
2023/05/22 04:10:15;;;;;;;;;;;;;;;;;;4981029;28;19964;-71
2023/05/22 04:12:41;;;;;;;;;;;;;;;;;;4983440;28;20008;-71
2023/05/22 04:15:07;;;;;;;;;;;;;;;;;;4980763;28;20203;-70
2023/05/22 04:17:33;;;;;;;;;;;;;;;;;;4978505;28;19983;-69
2023/05/22 04:19:59;;;;;;;;;;;;;;;;;;4980994;28;19991;-70
2023/05/22 04:22:26;;;;;;;;;;;;;;;;;;4982550;28;19926;-70
2023/05/22 04:24:52;;;;;;;;;;;;;;;;;;4980964;28;20693;-69
2023/05/22 04:27:21;;;;;;;;;;;;;;;;;;4982949;28;19913;-69
2023/05/22 04:29:47;;;;;;;;;;;;;;;;;;4982269;28;19914;-71
2023/05/22 04:32:16;;;;;;;;;;;;;;;;;;4979228;28;19917;-69
2023/05/22 04:34:43;;;;;;;;;;;;;;;;;;4982132;28;19942;-69
2023/05/22 04:37:09;;;;;;;;;;;;;;;;;;4979517;28;20043;-70
2023/05/22 04:39:36;;;;;;;;;;;;;;;;;;4987709;28;20084;-69
2023/05/22 04:42:04;;;;;;;;;;;;;;;;;;4979177;28;19967;-70
2023/05/22 04:44:33;;;;;;;;;;;;;;;;;;4987502;28;19925;-70
2023/05/22 04:46:59;;;;;;;;;;;;;;;;;;4983642;28;20399;-70
2023/05/22 04:49:25;;;;;;;;;;;;;;;;;;4987270;28;19982;-70
2023/05/22 04:51:52;;;;;;;;;;;;;;;;;;4986599;28;20331;-69
2023/05/22 04:54:18;;;;;;;;;;;;;;;;;;4981894;28;19995;-69
2023/05/22 04:56:44;;;;;;;;;;;;;;;;;;4981002;28;20346;-69
2023/05/22 04:59:15;;;;;;;;;;;;;;;;;;4982426;28;20467;-69
2023/05/22 05:01:44;;;;;;;;;;;;;;;;;;4982968;28;20429;-69
2023/05/22 05:04:10;;;;;;;;;;;;;;;;;;4977370;28;20425;-71
2023/05/22 05:06:36;;;;;;;;;;;;;;;;;;4983436;28;19913;-70
2023/05/22 05:09:02;;;;;;;;;;;;;;;;;;4979921;28;20040;-70
2023/05/22 05:11:28;;;;;;;;;;;;;;;;;;4985696;28;19913;-70
2023/05/22 05:13:54;;;;;;;;;;;;;;;;;;4979843;28;19913;-72
2023/05/22 05:16:22;;;;;;;;;;;;;;;;;;4982246;28;20388;-70
2023/05/22 05:18:47;;;;;;;;;;;;;;;;;;4980790;28;20082;-71
2023/05/22 05:21:14;;;;;;;;;;;;;;;;;;4981081;28;20495;-70
2023/05/22 05:23:39;;;;;;;;;;;;;;;;;;4981766;28;20376;-71
2023/05/22 05:26:06;;;;;;;;;;;;;;;;;;4993190;28;19918;-70
2023/05/22 05:28:32;;;;;;;;;;;;;;;;;;4979953;28;19913;-70
2023/05/22 05:30:58;;;;;;;;;;;;;;;;;;4980970;28;19920;-70
2023/05/22 05:33:24;;;;;;;;;;;;;;;;;;4981359;28;20373;-70
2023/05/22 05:35:51;;;;;;;;;;;;;;;;;;4999330;28;20740;-70
2023/05/22 05:38:17;;;;;;;;;;;;;;;;;;4975902;28;19920;-70
2023/05/22 05:40:43;;;;;;;;;;;;;;;;;;4981998;28;19927;-70
2023/05/22 05:43:09;;;;;;;;;;;;;;;;;;4979034;28;19913;-70
2023/05/22 05:45:35;;;;;;;;;;;;;;;;;;4981646;28;19913;-70
2023/05/22 05:48:01;;;;;;;;;;;;;;;;;;4981657;28;19967;-69
2023/05/22 05:50:27;;;;;;;;;;;;;;;;;;4986299;28;19920;-70
2023/05/22 05:52:53;;;;;;;;;;;;;;;;;;4979639;28;20519;-70
2023/05/22 05:55:19;;;;;;;;;;;;;;;;;;4985197;28;19924;-70
2023/05/22 05:57:45;;;;;;;;;;;;;;;;;;4981982;28;19944;-70
2023/05/22 06:00:11;;;;;;;;;;;;;;;;;;4981764;28;20031;-70
2023/05/22 06:02:37;;;;;;;;;;;;;;;;;;4983656;28;20422;-70
2023/05/22 06:05:07;;;;;;;;;;;;;;;;;;4979758;28;19945;-70
2023/05/22 06:07:36;;;;;;;;;;;;;;;;;;4980913;28;19914;-70
2023/05/22 06:10:03;;;;;;;;;;;;;;;;;;4981399;28;20424;-70
2023/05/22 06:12:29;;;;;;;;;;;;;;;;;;4984858;28;19913;-70
2023/05/22 06:14:55;;;;;;;;;;;;;;;;;;4979739;28;19914;-70
2023/05/22 06:17:21;;;;;;;;;;;;;;;;;;4983170;28;19936;-70
2023/05/22 06:19:47;;;;;;;;;;;;;;;;;;4982518;28;20374;-70
2023/05/22 06:22:13;;;;;;;;;;;;;;;;;;4980807;28;20275;-70
2023/05/22 06:24:39;;;;;;;;;;;;;;;;;;4985449;28;19921;-69
2023/05/22 06:27:05;;;;;;;;;;;;;;;;;;4981307;28;19917;-70
2023/05/22 06:29:31;;;;;;;;;;;;;;;;;;4984014;28;20423;-72
2023/05/22 06:31:57;;;;;;;;;;;;;;;;;;4978878;28;19972;-72
2023/05/22 06:34:24;;;;;;;;;;;;;;;;;;4983685;28;20436;-71
2023/05/22 06:36:50;;;;;;;;;;;;;;;;;;4983769;28;19925;-70
2023/05/22 06:39:16;;;;;;;;;;;;;;;;;;4976923;28;20357;-70
2023/05/22 06:41:42;;;;;;;;;;;;;;;;;;4981048;28;19917;-70
2023/05/22 06:44:09;;;;;;;;;;;;;;;;;;4978831;28;19913;-70
2023/05/22 06:46:35;;;;;;;;;;;;;;;;;;4981531;28;20409;-69
2023/05/22 06:49:01;;;;;;;;;;;;;;;;;;4980307;28;20476;-71
2023/05/22 06:51:28;;;;;;;;;;;;;;;;;;4983521;28;19914;-69
2023/05/22 06:53:55;;;;;;;;;;;;;;;;;;4980906;28;19913;-69
2023/05/22 06:56:21;;;;;;;;;;;;;;;;;;4985670;28;20016;-69
2023/05/22 06:58:47;;;;;;;;;;;;;;;;;;4985720;28;19921;-69
2023/05/22 07:01:13;;;;;;;;;;;;;;;;;;4982994;28;19921;-70
2023/05/22 07:03:39;;;;;;;;;;;;;;;;;;4979990;28;19920;-69
2023/05/22 07:06:06;;;;;;;;;;;;;;;;;;4979518;28;19920;-71
2023/05/22 07:08:32;;;;;;;;;;;;;;;;;;4983021;28;19920;-71
2023/05/22 07:10:58;;;;;;;;;;;;;;;;;;4978184;28;20524;-71
2023/05/22 07:13:24;;;;;;;;;;;;;;;;;;4984582;28;19921;-72
2023/05/22 07:15:50;;;;;;;;;;;;;;;;;;4980886;28;19913;-72
2023/05/22 07:18:16;;;;;;;;;;;;;;;;;;4979090;28;20387;-71
2023/05/22 07:20:43;;;;;;;;;;;;;;;;;;4980973;28;19917;-72
2023/05/22 07:23:09;;;;;;;;;;;;;;;;;;4981373;28;20226;-71
2023/05/22 07:25:35;;;;;;;;;;;;;;;;;;4985699;28;20343;-71
2023/05/22 07:28:02;;;;;;;;;;;;;;;;;;4978480;28;19921;-71
2023/05/22 07:30:28;;;;;;;;;;;;;;;;;;4983385;28;20270;-71
2023/05/22 07:32:54;;;;;;;;;;;;;;;;;;4979723;28;19917;-71
2023/05/22 07:35:20;;;;;;;;;;;;;;;;;;4981890;28;20313;-69
2023/05/22 07:37:47;;;;;;;;;;;;;;;;;;4976400;28;19913;-69
2023/05/22 07:40:12;;;;;;;;;;;;;;;;;;4970943;28;21526;-69
2023/05/22 07:42:39;;;;;;;;;;;;;;;;;;4981348;28;20571;-69
2023/05/22 07:45:04;;;;;;;;;;;;;;;;;;4977643;28;20732;-70
2023/05/22 07:47:30;;;;;;;;;;;;;;;;;;4984225;28;20197;-70
2023/05/22 07:49:56;;;;;;;;;;;;;;;;;;4983903;28;19917;-69
2023/05/22 07:52:23;;;;;;;;;;;;;;;;;;4987173;28;20204;-70
2023/05/22 07:54:48;;;;;;;;;;;;;;;;;;4983494;28;19957;-69
2023/05/22 07:57:15;;;;;;;;;;;;;;;;;;4982257;28;20361;-70
2023/05/22 07:59:42;;;;;;;;;;;;;;;;;;4984436;28;20268;-69
2023/05/22 08:02:08;;;;;;;;;;;;;;;;;;4978611;28;20008;-70
2023/05/22 08:04:34;;;;;;;;;;;;;;;;;;4987021;28;20562;-70
2023/05/22 08:07:00;;;;;;;;;;;;;;;;;;4981324;28;19920;-70
2023/05/22 08:09:26;;;;;;;;;;;;;;;;;;5012950;28;20281;-70
2023/05/22 08:11:52;;;;;;;;;;;;;;;;;;4979806;28;19921;-70
2023/05/22 08:14:18;;;;;;;;;;;;;;;;;;4980102;28;19952;-70
2023/05/22 08:16:44;;;;;;;;;;;;;;;;;;4978478;28;19996;-70
2023/05/22 08:19:10;;;;;;;;;;;;;;;;;;4979913;28;20304;-70
2023/05/22 08:21:36;;;;;;;;;;;;;;;;;;4982707;28;20469;-70
2023/05/22 08:24:02;;;;;;;;;;;;;;;;;;4982091;28;19929;-70
2023/05/22 08:26:28;;;;;;;;;;;;;;;;;;4981909;28;20022;-70
2023/05/22 08:28:54;;;;;;;;;;;;;;;;;;4976093;28;20012;-70
2023/05/22 08:31:21;;;;;;;;;;;;;;;;;;4980486;28;19944;-69
2023/05/22 08:33:47;;;;;;;;;;;;;;;;;;4981930;28;20973;-71
2023/05/22 08:36:13;;;;;;;;;;;;;;;;;;4979013;28;19972;-69
2023/05/22 08:38:39;;;;;;;;;;;;;;;;;;4981015;28;20206;-69
2023/05/22 08:41:05;;;;;;;;;;;;;;;;;;4979379;28;19928;-69
2023/05/22 08:43:31;;;;;;;;;;;;;;;;;;4982874;28;19918;-70
2023/05/22 08:45:57;;;;;;;;;;;;;;;;;;4976346;28;19913;-69
2023/05/22 08:48:23;;;;;;;;;;;;;;;;;;4983111;28;19922;-69
2023/05/22 08:50:49;;;;;;;;;;;;;;;;;;4981752;28;20404;-70
2023/05/22 08:53:16;;;;;;;;;;;;;;;;;;4977640;28;19948;-71
2023/05/22 08:55:42;;;;;;;;;;;;;;;;;;4978837;28;19917;-70
2023/05/22 08:58:08;;;;;;;;;;;;;;;;;;4980546;28;20357;-70
2023/05/22 09:00:34;;;;;;;;;;;;;;;;;;4982913;28;19920;-70
2023/05/22 09:03:00;;;;;;;;;;;;;;;;;;4977945;28;19913;-70
2023/05/22 09:05:26;;;;;;;;;;;;;;;;;;4981775;28;19920;-70
2023/05/22 09:07:52;;;;;;;;;;;;;;;;;;4983967;28;20782;-70
2023/05/22 09:10:18;;;;;;;;;;;;;;;;;;4983253;28;19913;-70
2023/05/22 09:12:44;;;;;;;;;;;;;;;;;;4982546;28;19945;-71
2023/05/22 09:15:11;;;;;;;;;;;;;;;;;;4980676;28;19917;-70
2023/05/22 09:17:37;;;;;;;;;;;;;;;;;;4985122;28;20052;-70
2023/05/22 09:20:03;;;;;;;;;;;;;;;;;;4979339;28;19913;-70
2023/05/22 09:22:29;;;;;;;;;;;;;;;;;;4978402;28;19949;-71
2023/05/22 09:24:58;;;;;;;;;;;;;;;;;;4992956;28;20041;-70
2023/05/22 09:27:24;;;;;;;;;;;;;;;;;;4982233;28;20142;-70
2023/05/22 09:29:49;;;;;;;;;;;;;;;;;;4978948;28;20325;-70
2023/05/22 09:32:16;;;;;;;;;;;;;;;;;;4977374;28;19936;-70
2023/05/22 09:34:43;;;;;;;;;;;;;;;;;;4993641;28;20059;-70
2023/05/22 09:37:10;;;;;;;;;;;;;;;;;;4978022;28;19913;-70
2023/05/22 09:39:35;;;;;;;;;;;;;;;;;;4982866;28;19913;-70
2023/05/22 09:42:01;;;;;;;;;;;;;;;;;;4978753;28;20289;-71
2023/05/22 09:44:27;;;;;;;;;;;;;;;;;;4980342;28;19913;-70
2023/05/22 09:46:53;;;;;;;;;;;;;;;;;;4978447;28;19921;-70
2023/05/22 09:49:19;;;;;;;;;;;;;;;;;;5010498;28;19914;-70
2023/05/22 09:51:46;;;;;;;;;;;;;;;;;;4981149;28;19953;-69
2023/05/22 09:54:12;;;;;;;;;;;;;;;;;;4976622;28;19972;-69
2023/05/22 09:56:38;;;;;;;;;;;;;;;;;;4980348;28;20431;-70
2023/05/22 09:59:04;;;;;;;;;;;;;;;;;;4977991;28;19919;-69
2023/05/22 10:01:32;;;;;;;;;;;;;;;;;;4983137;28;19920;-70
2023/05/22 10:03:58;;;;;;;;;;;;;;;;;;4976917;28;19984;-70
2023/05/22 10:06:25;;;;;;;;;;;;;;;;;;4979769;28;20392;-70
2023/05/22 10:08:51;;;;;;;;;;;;;;;;;;4980967;28;19913;-70
2023/05/22 10:11:17;;;;;;;;;;;;;;;;;;4978887;28;19969;-70
2023/05/22 10:13:46;;;;;;;;;;;;;;;;;;4980228;28;19937;-69
2023/05/22 10:16:12;;;;;;;;;;;;;;;;;;4977481;28;19913;-69
2023/05/22 10:18:38;;;;;;;;;;;;;;;;;;4980345;28;19913;-69
2023/05/22 10:21:04;;;;;;;;;;;;;;;;;;4979428;28;20674;-70
2023/05/22 10:23:30;;;;;;;;;;;;;;;;;;4981247;28;19921;-69
2023/05/22 10:25:56;;;;;;;;;;;;;;;;;;4978578;28;19921;-69
2023/05/22 10:28:22;;;;;;;;;;;;;;;;;;4981399;28;19952;-69
2023/05/22 10:30:48;;;;;;;;;;;;;;;;;;4981508;28;19918;-70
2023/05/22 10:33:15;;;;;;;;;;;;;;;;;;4980521;28;20473;-69
2023/05/22 10:35:41;;;;;;;;;;;;;;;;;;4983707;28;20490;-69
2023/05/22 10:38:07;;;;;;;;;;;;;;;;;;4980068;28;19913;-70
2023/05/22 10:40:33;;;;;;;;;;;;;;;;;;4985003;28;19914;-71
2023/05/22 10:42:59;;;;;;;;;;;;;;;;;;4975942;28;20514;-72
2023/05/22 10:45:26;;;;;;;;;;;;;;;;;;4975679;28;19929;-70
2023/05/22 10:47:52;;;;;;;;;;;;;;;;;;4979930;28;20068;-69
2023/05/22 10:50:18;;;;;;;;;;;;;;;;;;4976726;28;20738;-72
2023/05/22 10:52:44;;;;;;;;;;;;;;;;;;4977123;28;20290;-71
2023/05/22 10:55:10;;;;;;;;;;;;;;;;;;4979270;28;19917;-69
2023/05/22 10:57:36;;;;;;;;;;;;;;;;;;4984131;28;19913;-69
2023/05/22 11:00:02;;;;;;;;;;;;;;;;;;4979019;28;20657;-69
2023/05/22 11:02:30;;;;;;;;;;;;;;;;;;4979414;28;19952;-71
2023/05/22 11:04:56;;;;;;;;;;;;;;;;;;4978987;28;20077;-70
2023/05/22 11:07:22;;;;;;;;;;;;;;;;;;4976019;28;20023;-71
2023/05/22 11:09:47;;;;;;;;;;;;;;;;;;4978399;28;20360;-71
2023/05/22 11:12:16;;;;;;;;;;;;;;;;;;4977511;28;20593;-71
2023/05/22 11:14:42;;;;;;;;;;;;;;;;;;4980949;28;19921;-71
2023/05/22 11:17:08;;;;;;;;;;;;;;;;;;4975482;28;20003;-71
2023/05/22 11:19:34;;;;;;;;;;;;;;;;;;4980630;28;19913;-69
2023/05/22 11:22:01;;;;;;;;;;;;;;;;;;4977822;28;19948;-71
2023/05/22 11:24:27;;;;;;;;;;;;;;;;;;4978509;28;19926;-71
2023/05/22 11:26:53;;;;;;;;;;;;;;;;;;4978169;28;19925;-71
2023/05/22 11:29:19;;;;;;;;;;;;;;;;;;4980049;28;19916;-71
2023/05/22 11:31:46;;;;;;;;;;;;;;;;;;4980725;28;20008;-71
2023/05/22 11:34:12;;;;;;;;;;;;;;;;;;4979766;28;19936;-71
2023/05/22 11:36:38;;;;;;;;;;;;;;;;;;4978583;28;20358;-70
2023/05/22 11:39:04;;;;;;;;;;;;;;;;;;4973429;28;19921;-70
2023/05/22 11:41:30;;;;;;;;;;;;;;;;;;4984068;28;20004;-71
2023/05/22 11:43:56;;;;;;;;;;;;;;;;;;4990375;28;19917;-71
2023/05/22 11:46:22;;;;;;;;;;;;;;;;;;4980896;28;20429;-71
2023/05/22 11:48:48;;;;;;;;;;;;;;;;;;4976318;28;19914;-71
2023/05/22 11:51:14;;;;;;;;;;;;;;;;;;4976508;28;20664;-69
2023/05/22 11:53:40;;;;;;;;;;;;;;;;;;4980014;28;20723;-69
2023/05/22 11:56:06;;;;;;;;;;;;;;;;;;4978456;28;20249;-71
2023/05/22 11:58:32;;;;;;;;;;;;;;;;;;4977765;28;19940;-71
2023/05/22 12:00:58;;;;;;;;;;;;;;;;;;4976314;28;19917;-70
2023/05/22 12:03:24;;;;;;;;;;;;;;;;;;4979790;28;20638;-70
2023/05/22 12:05:50;;;;;;;;;;;;;;;;;;4976500;28;19914;-70
2023/05/22 12:08:16;;;;;;;;;;;;;;;;;;4973685;28;19913;-71
2023/05/22 12:10:42;;;;;;;;;;;;;;;;;;4976427;28;19945;-71
2023/05/22 12:13:08;;;;;;;;;;;;;;;;;;4975049;28;20095;-70
2023/05/22 12:15:34;;;;;;;;;;;;;;;;;;4975724;28;20327;-70
2023/05/22 12:18:00;;;;;;;;;;;;;;;;;;4973221;28;20452;-70
2023/05/22 12:20:26;;;;;;;;;;;;;;;;;;4982402;28;20701;-70
2023/05/22 12:22:52;;;;;;;;;;;;;;;;;;4982711;28;20039;-71
2023/05/22 12:25:18;;;;;;;;;;;;;;;;;;4977989;28;19959;-71
2023/05/22 12:27:44;;;;;;;;;;;;;;;;;;4984179;28;19909;-70
2023/05/22 12:30:10;;;;;;;;;;;;;;;;;;4984812;28;19921;-70
2023/05/22 12:32:36;;;;;;;;;;;;;;;;;;4983571;28;19917;-70
2023/05/22 12:35:02;;;;;;;;;;;;;;;;;;4976201;28;19913;-70
2023/05/22 12:37:30;;;;;;;;;;;;;;;;;;4987146;28;19916;-70
2023/05/22 12:39:56;;;;;;;;;;;;;;;;;;4975872;28;20181;-70
2023/05/22 12:42:22;;;;;;;;;;;;;;;;;;4985728;28;19917;-70
2023/05/22 12:44:49;;;;;;;;;;;;;;;;;;4983322;28;19921;-70
2023/05/22 12:47:15;;;;;;;;;;;;;;;;;;4984390;28;20443;-70
2023/05/22 12:49:41;;;;;;;;;;;;;;;;;;4982513;28;19922;-70
2023/05/22 12:52:07;;;;;;;;;;;;;;;;;;4983246;28;20280;-70
2023/05/22 12:54:33;;;;;;;;;;;;;;;;;;4989117;28;20259;-70
2023/05/22 12:56:59;;;;;;;;;;;;;;;;;;4982765;28;20407;-70
2023/05/22 12:59:25;;;;;;;;;;;;;;;;;;4985397;28;20040;-70
2023/05/22 13:01:51;;;;;;;;;;;;;;;;;;4983329;28;19926;-70
2023/05/22 13:04:17;;;;;;;;;;;;;;;;;;4981128;28;19921;-70
2023/05/22 13:06:43;;;;;;;;;;;;;;;;;;4983728;28;19965;-70
2023/05/22 13:09:09;;;;;;;;;;;;;;;;;;4979471;28;19921;-70
2023/05/22 13:11:35;;;;;;;;;;;;;;;;;;4982322;28;19920;-70
2023/05/22 13:14:01;;;;;;;;;;;;;;;;;;4983827;28;19998;-71
2023/05/22 13:16:27;;;;;;;;;;;;;;;;;;4988117;28;19928;-71
2023/05/22 13:18:53;;;;;;;;;;;;;;;;;;4986141;28;19917;-71
2023/05/22 13:21:19;;;;;;;;;;;;;;;;;;4985236;28;19924;-71
2023/05/22 13:23:44;;;;;;;;;;;;;;;;;;4983460;28;20687;-71
2023/05/22 13:26:10;;;;;;;;;;;;;;;;;;4982522;28;19917;-70
2023/05/22 13:28:36;;;;;;;;;;;;;;;;;;4985461;28;20681;-70
2023/05/22 13:31:02;;;;;;;;;;;;;;;;;;4980489;28;19917;-70
2023/05/22 13:33:28;;;;;;;;;;;;;;;;;;4978287;28;20057;-70
2023/05/22 13:35:54;;;;;;;;;;;;;;;;;;4979300;28;19913;-70
2023/05/22 13:38:20;;;;;;;;;;;;;;;;;;4982167;28;20499;-70
2023/05/22 13:40:46;;;;;;;;;;;;;;;;;;4983695;28;19913;-70
2023/05/22 13:43:13;;;;;;;;;;;;;;;;;;4979592;28;19928;-70
2023/05/22 13:45:39;;;;;;;;;;;;;;;;;;4982022;28;19922;-70
2023/05/22 13:48:05;;;;;;;;;;;;;;;;;;4981966;28;20392;-70
2023/05/22 13:50:31;;;;;;;;;;;;;;;;;;4985219;28;20031;-70
2023/05/22 13:52:57;;;;;;;;;;;;;;;;;;4978173;28;19936;-70
2023/05/22 13:55:23;;;;;;;;;;;;;;;;;;4984170;28;20641;-71
2023/05/22 13:57:49;;;;;;;;;;;;;;;;;;4983116;28;20328;-70
2023/05/22 14:00:15;;;;;;;;;;;;;;;;;;4978632;28;20049;-70
2023/05/22 14:02:40;;;;;;;;;;;;;;;;;;4981834;28;19917;-70
2023/05/22 14:05:06;;;;;;;;;;;;;;;;;;4980232;28;19914;-70
2023/05/22 14:07:32;;;;;;;;;;;;;;;;;;4981522;28;19941;-70
2023/05/22 14:09:58;;;;;;;;;;;;;;;;;;4982389;28;20315;-70
2023/05/22 14:12:24;;;;;;;;;;;;;;;;;;4979959;28;19918;-70
2023/05/22 14:14:52;;;;;;;;;;;;;;;;;;4981859;28;19929;-71
2023/05/22 14:17:18;;;;;;;;;;;;;;;;;;4976656;28;20718;-70
2023/05/22 14:19:44;;;;;;;;;;;;;;;;;;4983593;28;20054;-71
2023/05/22 14:22:10;;;;;;;;;;;;;;;;;;4978887;28;19917;-70
2023/05/22 14:24:35;;;;;;;;;;;;;;;;;;4980376;28;19926;-69
2023/05/22 14:27:01;;;;;;;;;;;;;;;;;;4980699;28;19946;-71
2023/05/22 14:29:27;;;;;;;;;;;;;;;;;;4985464;28;20309;-72
2023/05/22 14:31:53;;;;;;;;;;;;;;;;;;4979382;28;19917;-71
2023/05/22 14:34:19;;;;;;;;;;;;;;;;;;4982524;28;20009;-70
2023/05/22 14:36:45;;;;;;;;;;;;;;;;;;4978297;28;20362;-70
2023/05/22 14:39:11;;;;;;;;;;;;;;;;;;4975909;28;20429;-70
2023/05/22 14:41:37;;;;;;;;;;;;;;;;;;4978523;28;20901;-70
2023/05/22 14:44:03;;;;;;;;;;;;;;;;;;4978581;28;19918;-70
2023/05/22 14:46:30;;;;;;;;;;;;;;;;;;4979100;28;20001;-71
2023/05/22 14:48:56;;;;;;;;;;;;;;;;;;4977698;28;19997;-71
2023/05/22 14:51:22;;;;;;;;;;;;;;;;;;4979109;28;19916;-71
2023/05/22 14:53:48;;;;;;;;;;;;;;;;;;4978935;28;19914;-71
2023/05/22 14:56:14;;;;;;;;;;;;;;;;;;4976034;28;19921;-70
2023/05/22 14:58:40;;;;;;;;;;;;;;;;;;4980520;28;20559;-70
2023/05/22 15:01:06;;;;;;;;;;;;;;;;;;4978504;28;19929;-70
2023/05/22 15:03:32;;;;;;;;;;;;;;;;;;4977860;28;19920;-70
2023/05/22 15:05:58;;;;;;;;;;;;;;;;;;4975198;28;19917;-70
2023/05/22 15:08:24;;;;;;;;;;;;;;;;;;4991882;28;20358;-70
2023/05/22 15:10:50;;;;;;;;;;;;;;;;;;4977100;28;20035;-70
2023/05/22 15:13:16;;;;;;;;;;;;;;;;;;4978133;28;20660;-70
2023/05/22 15:15:42;;;;;;;;;;;;;;;;;;4979345;28;19913;-72
2023/05/22 15:18:08;;;;;;;;;;;;;;;;;;4974294;28;19913;-70
2023/05/22 15:20:34;;;;;;;;;;;;;;;;;;4981861;28;19964;-70
2023/05/22 15:23:00;;;;;;;;;;;;;;;;;;4975339;28;19922;-72
2023/05/22 15:25:26;;;;;;;;;;;;;;;;;;4979517;28;19921;-70
2023/05/22 15:27:52;;;;;;;;;;;;;;;;;;4979155;28;20051;-72
2023/05/22 15:30:18;;;;;;;;;;;;;;;;;;4976289;28;19914;-70
2023/05/22 15:32:44;;;;;;;;;;;;;;;;;;4978346;28;19922;-70
2023/05/22 15:35:10;;;;;;;;;;;;;;;;;;4977903;28;19913;-72
2023/05/22 15:37:36;;;;;;;;;;;;;;;;;;4979698;28;20364;-70
2023/05/22 15:40:02;;;;;;;;;;;;;;;;;;4977035;28;19918;-70
2023/05/22 15:42:28;;;;;;;;;;;;;;;;;;4974398;28;20263;-70
2023/05/22 15:45:09;;;;;;;;;;;;;;;;;;4977470;28;20289;-70
2023/05/22 15:47:37;;;;;;;;;;;;;;;;;;4980385;28;19916;-71
2023/05/22 15:50:03;;;;;;;;;;;;;;;;;;4975575;28;19913;-70
2023/05/22 15:52:29;;;;;;;;;;;;;;;;;;4977019;28;20180;-71
2023/05/22 15:54:55;;;;;;;;;;;;;;;;;;4976716;28;20570;-71
2023/05/22 15:57:21;;;;;;;;;;;;;;;;;;4977113;28;19910;-70
2023/05/22 15:59:49;;;;;;;;;;;;;;;;;;4979414;28;19920;-71
2023/05/22 16:02:15;;;;;;;;;;;;;;;;;;4978352;28;20381;-70
2023/05/22 16:04:41;;;;;;;;;;;;;;;;;;4980006;28;19921;-70
2023/05/22 16:07:07;;;;;;;;;;;;;;;;;;4980130;28;20729;-71
2023/05/22 16:09:34;;;;;;;;;;;;;;;;;;4984409;28;19917;-70
2023/05/22 16:12:00;;;;;;;;;;;;;;;;;;4979429;28;19996;-71
2023/05/22 16:14:26;;;;;;;;;;;;;;;;;;4981653;28;19913;-72
2023/05/22 16:16:53;;;;;;;;;;;;;;;;;;4983427;28;20339;-74
2023/05/22 16:19:19;;;;;;;;;;;;;;;;;;4982363;28;20421;-72
2023/05/22 16:21:45;;;;;;;;;;;;;;;;;;4982413;28;19917;-72
2023/05/22 16:24:11;;;;;;;;;;;;;;;;;;4977796;28;19925;-71
2023/05/22 16:26:37;;;;;;;;;;;;;;;;;;4996890;28;20347;-72
2023/05/22 16:29:03;;;;;;;;;;;;;;;;;;4979846;28;20353;-72
2023/05/22 16:31:34;;;;;;;;;;;;;;;;;;4987506;28;19968;-71
2023/05/22 16:34:00;;;;;;;;;;;;;;;;;;4977104;28;19960;-72
2023/05/22 16:36:26;;;;;;;;;;;;;;;;;;4980366;28;19913;-71
2023/05/22 16:38:51;;;;;;;;;;;;;;;;;;5014208;28;19940;-72